createdAt,value
2023-04-09T02:29:22.230Z,100251.13
2023-04-09T02:30:54.247Z,100255.44
2023-04-09T02:32:27.049Z,100253.72
2023-04-09T02:33:59.146Z,100258.03
2023-04-09T02:35:31.264Z,100260.59
2023-04-09T02:37:03.372Z,100258.88
2023-04-09T02:38:35.461Z,100256.31
2023-04-09T02:40:08.159Z,100259.75
2023-04-09T02:41:40.440Z,100258.91
2023-04-09T02:43:12.660Z,100258.91
2023-04-09T02:44:44.851Z,100262.31
2023-04-09T02:46:17.091Z,100255.44
2023-04-09T02:47:49.389Z,100264.91
2023-04-09T02:49:21.543Z,100258.88
2023-04-09T02:50:53.780Z,100258.88
2023-04-09T02:52:26.414Z,100260.59
2023-04-09T02:53:58.505Z,100258.00
2023-04-09T02:55:30.722Z,100264.91
2023-04-09T02:57:02.698Z,100253.72
2023-04-09T02:58:34.836Z,100258.88
2023-04-09T03:00:07.744Z,100259.72
2023-04-09T03:01:39.899Z,100250.28
2023-04-09T03:03:12.298Z,100262.31
2023-04-09T03:04:44.636Z,100263.19
2023-04-09T03:06:16.824Z,100264.03
2023-04-09T03:07:51.982Z,100264.88
2023-04-09T03:09:24.178Z,100265.75
2023-04-09T03:10:56.332Z,100257.16
2023-04-09T03:12:28.452Z,100263.16
2023-04-09T03:14:00.806Z,100272.63
2023-04-09T03:15:32.897Z,100259.75
2023-04-09T03:17:05.016Z,100267.47
2023-04-09T03:18:37.573Z,100265.75
2023-04-09T03:20:09.977Z,100270.06
2023-04-09T03:21:42.118Z,100270.03
2023-04-09T03:23:14.257Z,100264.91
2023-04-09T03:24:46.650Z,100270.03
2023-04-09T03:26:18.732Z,100270.91
2023-04-09T03:27:50.868Z,100263.19
2023-04-09T03:29:22.960Z,100264.91
2023-04-09T03:30:55.201Z,100271.78
2023-04-09T03:32:27.649Z,100270.94
2023-04-09T03:33:59.847Z,100276.06
2023-04-09T03:35:32.039Z,100274.34
2023-04-09T03:37:04.168Z,100277.81
2023-04-09T03:38:36.509Z,100281.25
2023-04-09T03:40:09.150Z,100279.50
2023-04-09T03:41:41.243Z,100277.78
2023-04-09T03:43:13.453Z,100288.97
2023-04-09T03:44:45.570Z,100284.66
2023-04-09T03:46:18.479Z,100288.97
2023-04-09T03:47:50.801Z,100282.94
2023-04-09T03:49:23.054Z,100287.25
2023-04-09T03:50:55.116Z,100292.41
2023-04-09T03:52:27.373Z,100294.13
2023-04-09T03:53:59.700Z,100290.69
2023-04-09T03:55:31.814Z,100293.28
2023-04-09T03:57:04.962Z,100296.69
2023-04-09T03:58:37.726Z,100304.44
2023-04-09T04:00:10.152Z,100304.44
2023-04-09T04:01:42.380Z,100302.72
2023-04-09T04:03:16.701Z,100301.88
2023-04-09T04:04:48.946Z,100300.13
2023-04-09T04:06:21.406Z,100302.72
2023-04-09T04:07:53.793Z,100301.88
2023-04-09T04:09:26.066Z,100295.84
2023-04-09T04:11:04.408Z,100300.13
2023-04-09T04:12:36.481Z,100301.88
2023-04-09T04:14:08.516Z,100301.00
2023-04-09T04:15:44.392Z,100302.72
2023-04-09T04:17:16.675Z,100305.31
2023-04-09T04:18:48.790Z,100308.72
2023-04-09T04:20:21.238Z,100299.28
2023-04-09T04:21:53.374Z,100302.72
2023-04-09T04:23:25.622Z,100311.31
2023-04-09T04:24:57.758Z,100299.28
2023-04-09T04:26:29.926Z,100300.13
2023-04-09T04:28:02.080Z,100306.16
2023-04-09T04:29:34.141Z,100301.84
2023-04-09T04:31:11.098Z,100302.72
2023-04-09T04:32:43.337Z,100299.28
2023-04-09T04:34:15.700Z,100301.84
2023-04-09T04:35:48.121Z,100301.00
2023-04-09T04:37:20.498Z,100307.88
2023-04-09T04:38:52.953Z,100301.84
2023-04-09T04:40:25.404Z,100294.97
2023-04-09T04:41:57.692Z,100298.41
2023-04-09T04:43:29.925Z,100307.88
2023-04-09T04:45:02.431Z,100297.56
2023-04-09T04:46:34.556Z,100300.16
2023-04-09T04:48:06.743Z,100304.44
2023-04-09T04:49:38.826Z,100301.88
2023-04-09T04:51:11.017Z,100294.97
2023-04-09T04:52:43.140Z,100301.00
2023-04-09T04:54:15.207Z,100309.59
2023-04-09T04:55:47.294Z,100303.56
2023-04-09T04:57:19.545Z,100309.56
2023-04-09T04:58:54.136Z,100303.56
2023-04-09T05:00:26.482Z,100307.00
2023-04-09T05:01:58.618Z,100303.56
2023-04-09T05:03:30.953Z,100310.44
2023-04-09T05:05:03.332Z,100303.53
2023-04-09T05:06:35.457Z,100309.56
2023-04-09T05:08:07.666Z,100309.56
2023-04-09T05:09:39.722Z,100302.69
2023-04-09T05:11:13.291Z,100308.72
2023-04-09T05:12:45.519Z,100307.84
2023-04-09T05:14:17.737Z,100308.69
2023-04-09T05:15:49.805Z,100306.97
2023-04-09T05:17:21.917Z,100307.84
2023-04-09T05:18:54.484Z,100306.97
2023-04-09T05:20:28.185Z,100301.81
2023-04-09T05:22:00.336Z,100300.97
2023-04-09T05:23:32.443Z,100311.25
2023-04-09T05:25:05.024Z,100314.72
2023-04-09T05:26:37.155Z,100317.28
2023-04-09T05:28:11.641Z,100312.13
2023-04-09T05:29:43.893Z,100313.84
2023-04-09T05:31:16.626Z,100313.81
2023-04-09T05:32:48.876Z,100309.50
2023-04-09T05:34:21.358Z,100309.50
2023-04-09T05:35:53.615Z,100312.94
2023-04-09T05:37:26.178Z,100313.75
2023-04-09T05:38:58.342Z,100310.31
2023-04-09T05:40:30.774Z,100314.59
2023-04-09T05:42:02.961Z,100313.75
2023-04-09T05:43:35.039Z,100305.16
2023-04-09T05:45:07.861Z,100315.47
2023-04-09T05:46:39.997Z,100311.16
2023-04-09T05:48:12.211Z,100306.84
2023-04-09T05:49:44.330Z,100308.59
2023-04-09T05:51:16.859Z,100309.44
2023-04-09T05:52:48.911Z,100306.84
2023-04-09T05:54:21.058Z,100305.09
2023-04-09T05:55:53.294Z,100302.53
2023-04-09T05:57:25.447Z,100301.63
2023-04-09T05:58:57.621Z,100305.94
2023-04-09T06:00:29.879Z,100308.47
2023-04-09T06:02:02.632Z,100305.94
2023-04-09T06:03:34.922Z,100308.50
2023-04-09T06:05:07.493Z,100302.44
2023-04-09T06:06:39.737Z,100309.31
2023-04-09T06:08:13.190Z,100305.81
2023-04-09T06:09:45.493Z,100304.03
2023-04-09T06:11:18.338Z,100308.38
2023-04-09T06:12:50.722Z,100305.78
2023-04-09T06:14:22.841Z,100312.66
2023-04-09T06:15:55.368Z,100310.91
2023-04-09T06:17:27.591Z,100313.47
2023-04-09T06:18:59.703Z,100310.00
2023-04-09T06:20:31.843Z,100304.81
2023-04-09T06:22:03.989Z,100310.84
2023-04-09T06:23:37.236Z,100303.94
2023-04-09T06:25:09.434Z,100304.78
2023-04-09T06:26:41.987Z,100307.34
2023-04-09T06:29:48.012Z,100301.31
2023-04-09T06:31:20.173Z,100312.47
2023-04-09T06:32:54.930Z,100309.88
2023-04-09T06:34:27.547Z,100308.19
2023-04-09T06:35:59.687Z,100311.59
2023-04-09T06:37:31.814Z,100308.97
2023-04-09T06:39:04.385Z,100311.59
2023-04-09T06:40:40.112Z,100315.84
2023-04-09T06:42:12.187Z,100306.41
2023-04-09T06:43:44.237Z,100312.38
2023-04-09T06:45:16.613Z,100312.41
2023-04-09T06:46:48.780Z,100316.69
2023-04-09T06:48:21.192Z,100322.75
2023-04-09T06:49:53.294Z,100323.56
2023-04-09T06:51:25.478Z,100321.88
2023-04-09T06:52:58.053Z,100325.31
2023-04-09T06:54:30.157Z,100319.28
2023-04-09T06:56:02.310Z,100320.94
2023-04-09T06:59:13.761Z,100318.31
2023-04-09T07:00:45.850Z,100314.88
2023-04-09T07:02:18.081Z,100322.63
2023-04-09T07:03:50.593Z,100321.69
2023-04-09T07:05:23.090Z,100325.16
2023-04-09T07:06:55.644Z,100320.00
2023-04-09T07:08:29.120Z,100320.81
2023-04-09T07:10:01.906Z,100322.44
2023-04-09T07:11:34.023Z,100330.25
2023-04-09T07:13:06.383Z,100325.06
2023-04-09T07:14:38.418Z,100325.94
2023-04-09T07:16:13.687Z,100331.09
2023-04-09T07:17:45.930Z,100330.25
2023-04-09T07:19:18.304Z,100334.63
2023-04-09T07:20:50.458Z,100330.28
2023-04-09T07:22:23.408Z,100331.13
2023-04-09T07:23:56.797Z,100330.25
2023-04-09T07:25:28.978Z,100334.53
2023-04-09T07:27:04.495Z,100331.09
2023-04-09T07:28:37.045Z,100334.56
2023-04-09T07:30:10.966Z,100334.63
2023-04-09T07:31:45.300Z,100338.06
2023-04-09T07:33:17.465Z,100341.59
2023-04-09T07:34:52.022Z,100337.25
2023-04-09T07:36:24.278Z,100343.25
2023-04-09T07:37:56.495Z,100338.91
2023-04-09T07:39:28.861Z,100338.00
2023-04-09T07:41:01.723Z,100339.75
2023-04-09T07:42:33.928Z,100341.44
2023-04-09T07:44:06.776Z,100338.81
2023-04-09T07:45:39.081Z,100339.66
2023-04-09T07:47:13.243Z,100343.97
2023-04-09T07:48:47.169Z,100344.81
2023-04-09T07:50:20.463Z,100333.59
2023-04-09T07:51:52.611Z,100342.16
2023-04-09T07:53:24.968Z,100347.38
2023-04-09T07:54:57.822Z,100345.56
2023-04-09T07:56:30.017Z,100338.66
2023-04-09T07:58:02.109Z,100338.59
2023-04-09T07:59:35.581Z,100345.44
2023-04-09T08:01:07.523Z,100347.09
2023-04-09T08:02:39.795Z,100343.66
2023-04-09T08:04:13.716Z,100341.06
2023-04-09T08:05:46.037Z,100346.19
2023-04-09T08:07:18.335Z,100349.63
2023-04-09T08:08:50.690Z,100344.38
2023-04-09T08:10:23.108Z,100346.06
2023-04-09T08:11:55.311Z,100347.81
2023-04-09T08:13:27.437Z,100351.19
2023-04-09T08:14:59.516Z,100354.63
2023-04-09T08:16:31.694Z,100358.09
2023-04-09T08:18:04.677Z,100353.78
2023-04-09T08:19:37.112Z,100357.31
2023-04-09T08:21:09.982Z,100359.19
2023-04-09T08:22:42.539Z,100351.38
2023-04-09T08:24:14.823Z,100356.50
2023-04-09T08:25:47.066Z,100353.91
2023-04-09T08:27:19.671Z,100355.63
2023-04-09T08:28:52.686Z,100359.97
2023-04-09T08:30:25.081Z,100361.69
2023-04-09T08:31:57.723Z,100359.09
2023-04-09T08:33:30.679Z,100359.06
2023-04-09T08:35:02.806Z,100348.66
2023-04-09T08:36:36.141Z,100351.25
2023-04-09T08:38:08.276Z,100354.66
2023-04-09T08:39:40.375Z,100354.59
2023-04-09T08:41:18.896Z,100361.47
2023-04-09T08:42:58.647Z,100352.81
2023-04-09T08:44:33.337Z,100356.25
2023-04-09T08:46:06.534Z,100344.97
2023-04-09T08:47:38.963Z,100342.56
2023-04-09T08:49:14.710Z,100351.06
2023-04-09T08:50:47.193Z,100359.63
2023-04-09T08:52:22.381Z,100350.94
2023-04-09T08:54:01.391Z,100341.34
2023-04-09T08:55:35.489Z,100349.00
2023-04-09T08:57:08.119Z,100346.31
2023-04-09T08:58:45.700Z,100347.16
2023-04-09T09:00:17.923Z,100348.16
2023-04-09T09:01:54.832Z,100342.97
2023-04-09T09:03:27.401Z,100349.72
2023-04-09T09:05:02.482Z,100342.66
2023-04-09T09:06:39.211Z,100343.41
2023-04-09T09:08:13.179Z,100335.53
2023-04-09T09:09:59.265Z,100334.50
2023-04-09T09:11:31.683Z,100342.25
2023-04-09T09:13:17.123Z,100338.78
2023-04-09T09:14:51.573Z,100334.44
2023-04-09T09:16:23.749Z,100332.69
2023-04-09T09:18:01.232Z,100332.59
2023-04-09T09:19:34.069Z,100332.53
2023-04-09T09:21:18.134Z,100335.00
2023-04-09T09:22:55.177Z,100327.97
2023-04-09T09:24:28.217Z,100321.94
2023-04-09T09:26:00.538Z,100326.22
2023-04-09T09:27:40.846Z,100336.50
2023-04-09T09:29:12.958Z,100332.41
2023-04-09T09:32:22.367Z,100323.81
2023-04-09T09:33:54.730Z,100323.78
2023-04-09T09:35:27.096Z,100322.69
2023-04-09T09:36:59.380Z,100332.16
2023-04-09T09:38:31.890Z,100324.31
2023-04-09T09:40:04.998Z,100321.84
2023-04-09T09:41:37.541Z,100325.53
2023-04-09T09:43:09.752Z,100322.97
2023-04-09T09:44:41.944Z,100326.66
2023-04-09T09:46:14.226Z,100324.06
2023-04-09T09:47:46.984Z,100320.53
2023-04-09T09:49:19.165Z,100315.28
2023-04-09T09:50:52.582Z,100320.47
2023-04-09T09:52:27.913Z,100323.03
2023-04-09T09:54:00.173Z,100322.25
2023-04-09T09:55:39.560Z,100316.03
2023-04-09T09:57:14.922Z,100321.94
2023-04-09T09:58:56.090Z,100313.13
2023-04-09T10:00:29.782Z,100315.66
2023-04-09T10:02:05.657Z,100313.88
2023-04-09T10:03:40.071Z,100318.13
2023-04-09T10:05:12.220Z,100316.28
2023-04-09T10:06:45.442Z,100314.41
2023-04-09T10:08:18.354Z,100313.44
2023-04-09T10:09:51.988Z,100318.56
2023-04-09T10:11:24.872Z,100314.16
2023-04-09T10:12:57.199Z,100309.72
2023-04-09T10:14:29.858Z,100313.25
2023-04-09T10:16:02.801Z,100303.69
2023-04-09T10:17:35.069Z,100306.06
2023-04-09T10:19:10.322Z,100299.13
2023-04-09T10:20:49.374Z,100294.38
2023-04-09T10:22:24.113Z,100301.41
2023-04-09T10:23:56.319Z,100305.81
2023-04-09T10:25:29.012Z,100310.91
2023-04-09T10:27:12.119Z,100305.13
2023-04-09T10:28:45.906Z,100314.69
2023-04-09T10:30:34.694Z,100312.78
2023-04-09T10:32:07.778Z,100314.56
2023-04-09T10:33:40.152Z,100320.53
2023-04-09T10:35:12.237Z,100307.59
2023-04-09T10:36:45.731Z,100309.47
2023-04-09T10:38:17.869Z,100308.81
2023-04-09T10:39:51.985Z,100310.47
2023-04-09T10:41:29.076Z,100313.03
2023-04-09T10:43:02.336Z,100312.31
2023-04-09T10:44:36.469Z,100309.66
2023-04-09T10:46:30.196Z,100299.22
2023-04-09T10:48:03.714Z,100297.91
2023-04-09T10:49:38.815Z,100301.16
2023-04-09T10:51:19.658Z,100290.50
2023-04-09T10:53:00.656Z,100287.78
2023-04-09T10:54:35.625Z,100295.66
2023-04-09T10:56:15.880Z,100293.09
2023-04-09T10:57:47.972Z,100293.09
2023-04-09T10:59:20.110Z,100287.16
2023-04-09T11:00:54.337Z,100284.34
2023-04-09T11:02:32.384Z,100284.94
2023-04-09T11:04:17.565Z,100279.56
2023-04-09T11:06:01.436Z,100280.34
2023-04-09T11:07:36.134Z,100279.41
2023-04-09T11:09:08.333Z,100276.81
2023-04-09T11:10:42.490Z,100282.22
2023-04-09T11:12:14.714Z,100284.84
2023-04-09T11:13:46.801Z,100280.47
2023-04-09T11:15:20.282Z,100286.59
2023-04-09T11:16:52.498Z,100282.34
2023-04-09T11:18:26.573Z,100286.59
2023-04-09T11:19:58.952Z,100285.78
2023-04-09T11:21:31.849Z,100282.34
2023-04-09T11:23:04.093Z,100269.22
2023-04-09T11:24:43.140Z,100265.59
2023-04-09T11:26:15.293Z,100268.19
2023-04-09T11:27:48.036Z,100273.38
2023-04-09T11:29:20.165Z,100269.09
2023-04-09T11:30:52.868Z,100270.03
2023-04-09T11:32:31.174Z,100264.63
2023-04-09T11:34:03.755Z,100259.50
2023-04-09T11:35:37.183Z,100257.88
2023-04-09T11:37:14.795Z,100264.47
2023-04-09T11:38:50.671Z,100251.53
2023-04-09T11:40:27.119Z,100264.63
2023-04-09T11:41:59.366Z,100263.75
2023-04-09T11:43:31.527Z,100254.44
2023-04-09T11:45:04.204Z,100239.56
2023-04-09T11:46:36.688Z,100250.75
2023-04-09T11:48:09.046Z,100242.78
2023-04-09T11:49:42.281Z,100253.88
2023-04-09T11:51:14.363Z,100245.31
2023-04-09T11:52:47.356Z,100247.78
2023-04-09T11:54:19.539Z,100241.50
2023-04-09T11:55:53.019Z,100237.88
2023-04-09T11:57:25.151Z,100237.03
2023-04-09T11:58:57.537Z,100233.09
2023-04-09T12:00:30.084Z,100239.94
2023-04-09T12:02:03.929Z,100226.75
2023-04-09T12:03:37.962Z,100231.03
2023-04-09T12:05:12.461Z,100229.03
2023-04-09T12:06:45.312Z,100226.31
2023-04-09T12:08:18.873Z,100223.69
2023-04-09T12:09:51.245Z,100232.34
2023-04-09T12:11:29.537Z,100233.00
2023-04-09T12:13:03.776Z,100220.72
2023-04-09T12:14:36.003Z,100216.28
2023-04-09T12:16:08.362Z,100226.28
2023-04-09T12:17:40.592Z,100228.63
2023-04-09T12:19:15.036Z,100222.28
2023-04-09T12:20:50.014Z,100223.31
2023-04-09T12:22:22.391Z,100213.69
2023-04-09T12:23:54.579Z,100219.38
2023-04-09T12:25:28.073Z,100219.41
2023-04-09T12:27:00.260Z,100207.94
2023-04-09T12:28:32.616Z,100207.59
2023-04-09T12:30:05.358Z,100205.56
2023-04-09T12:31:37.871Z,100212.44
2023-04-09T12:33:11.123Z,100209.59
2023-04-09T12:34:43.890Z,100197.28
2023-04-09T12:36:16.000Z,100198.63
2023-04-09T12:37:48.411Z,100204.56
2023-04-09T12:39:21.458Z,100197.34
2023-04-09T12:40:53.680Z,100202.75
2023-04-09T12:42:25.899Z,100189.38
2023-04-09T12:43:58.252Z,100191.94
2023-04-09T12:45:31.360Z,100186.66
2023-04-09T12:47:03.660Z,100183.06
2023-04-09T12:48:35.827Z,100177.16
2023-04-09T12:50:09.428Z,100171.09
2023-04-09T12:51:42.124Z,100177.41
2023-04-09T12:53:14.376Z,100178.78
2023-04-09T12:54:47.940Z,100178.50
2023-04-09T12:56:20.900Z,100173.88
2023-04-09T12:57:53.623Z,100168.41
2023-04-09T12:59:25.917Z,100179.53
2023-04-09T13:00:58.364Z,100166.41
2023-04-09T13:02:30.758Z,100168.72
2023-04-09T13:04:03.298Z,100173.56
2023-04-09T13:05:38.414Z,100168.31
2023-04-09T13:07:10.553Z,100170.91
2023-04-09T13:08:42.740Z,100175.47
2023-04-09T13:10:14.934Z,100165.00
2023-04-09T13:11:47.136Z,100170.94
2023-04-09T13:13:19.439Z,100162.19
2023-04-09T13:14:53.101Z,100161.28
2023-04-09T13:16:25.220Z,100160.78
2023-04-09T13:19:42.728Z,100165.81
2023-04-09T13:21:19.126Z,100158.97
2023-04-09T13:22:52.864Z,100171.22
2023-04-09T13:24:25.155Z,100163.31
2023-04-09T13:25:57.758Z,100153.03
2023-04-09T13:27:29.952Z,100165.19
2023-04-09T13:29:02.726Z,100171.47
2023-04-09T13:30:34.999Z,100172.81
2023-04-09T13:32:11.422Z,100181.84
2023-04-09T13:33:43.749Z,100184.09
2023-04-09T13:35:16.094Z,100194.94
2023-04-09T13:36:48.254Z,100197.38
2023-04-09T13:38:20.414Z,100203.03
2023-04-09T13:39:52.509Z,100205.53
2023-04-09T13:41:29.794Z,100201.88
2023-04-09T13:43:02.957Z,100203.88
2023-04-09T13:44:35.656Z,100198.94
2023-04-09T13:46:07.901Z,100198.00
2023-04-09T13:47:40.065Z,100185.94
2023-04-09T13:49:12.369Z,100199.84
2023-04-09T13:50:47.077Z,100197.19
2023-04-09T13:52:19.519Z,100192.16
2023-04-09T13:53:52.894Z,100191.38
2023-04-09T13:55:25.200Z,100204.47
2023-04-09T13:56:57.528Z,100197.88
2023-04-09T13:58:29.779Z,100204.94
2023-04-09T14:00:04.936Z,100194.00
2023-04-09T14:01:37.590Z,100192.41
2023-04-09T14:03:10.329Z,100196.78
2023-04-09T14:04:42.598Z,100193.47
2023-04-09T14:06:14.849Z,100189.28
2023-04-09T14:07:47.025Z,100188.50
2023-04-09T14:09:19.313Z,100185.16
2023-04-09T14:10:51.938Z,100188.69
2023-04-09T14:12:24.144Z,100187.91
2023-04-09T14:13:56.497Z,100181.88
2023-04-09T14:15:28.687Z,100171.59
2023-04-09T14:17:00.843Z,100180.22
2023-04-09T14:18:33.067Z,100175.13
2023-04-09T14:20:05.481Z,100171.59
2023-04-09T14:21:37.738Z,100174.22
2023-04-09T14:23:10.148Z,100173.31
2023-04-09T14:24:42.252Z,100175.94
2023-04-09T14:26:14.487Z,100178.56
2023-04-09T14:27:47.308Z,100178.56
2023-04-09T14:29:20.392Z,100187.25
2023-04-09T14:30:52.969Z,100194.31
2023-04-09T14:32:25.163Z,100190.00
2023-04-09T14:33:57.410Z,100193.47
2023-04-09T14:35:29.727Z,100184.91
2023-04-09T14:37:02.014Z,100178.94
2023-04-09T14:38:35.150Z,100172.00
2023-04-09T14:40:10.350Z,100156.47
2023-04-09T14:41:42.796Z,100158.28
2023-04-09T14:43:14.986Z,100149.53
2023-04-09T14:44:47.157Z,100151.44
2023-04-09T14:46:20.634Z,100159.31
2023-04-09T14:47:55.310Z,100155.91
2023-04-09T14:49:27.600Z,100159.34
2023-04-09T14:50:59.801Z,100160.19
2023-04-09T14:54:03.771Z,100152.41
2023-04-09T14:55:38.564Z,100153.97
2023-04-09T14:57:10.764Z,100146.25
2023-04-09T14:58:42.980Z,100143.59
2023-04-09T15:00:15.495Z,100142.66
2023-04-09T15:01:47.829Z,100142.59
2023-04-09T15:03:20.202Z,100140.84
2023-04-09T15:04:52.489Z,100136.50
2023-04-09T15:06:24.842Z,100137.28
2023-04-09T15:07:57.911Z,100136.38
2023-04-09T15:09:30.022Z,100131.25
2023-04-09T15:11:02.271Z,100123.47
2023-04-09T15:12:34.592Z,100129.50
2023-04-09T15:14:06.757Z,100126.06
2023-04-09T15:15:41.931Z,100126.91
2023-04-09T15:17:14.094Z,100122.66
2023-04-09T15:18:47.897Z,100128.69
2023-04-09T15:20:20.149Z,100122.72
2023-04-09T15:21:52.275Z,100118.47
2023-04-09T15:23:24.477Z,100122.91
2023-04-09T15:24:56.784Z,100110.03
2023-04-09T15:26:29.025Z,100117.69
2023-04-09T15:28:02.803Z,100110.72
2023-04-09T15:29:35.134Z,100109.84
2023-04-09T15:31:07.710Z,100110.66
2023-04-09T15:32:39.890Z,100108.88
2023-04-09T15:34:12.087Z,100108.03
2023-04-09T15:35:44.484Z,100104.53
2023-04-09T15:37:16.776Z,100107.19
2023-04-09T15:38:48.863Z,100108.94
2023-04-09T15:40:21.039Z,100113.22
2023-04-09T15:41:53.256Z,100120.13
2023-04-09T15:43:25.726Z,100110.63
2023-04-09T15:44:57.833Z,100119.28
2023-04-09T15:46:29.933Z,100121.81
2023-04-09T15:48:02.092Z,100118.38
2023-04-09T15:49:37.156Z,100107.97
2023-04-09T15:51:09.647Z,100109.72
2023-04-09T15:52:42.001Z,100114.06
2023-04-09T15:54:14.237Z,100110.63
2023-04-09T15:55:46.865Z,100121.81
2023-04-09T15:57:19.822Z,100118.38
2023-04-09T15:58:52.174Z,100113.22
2023-04-09T16:00:24.670Z,100114.91
2023-04-09T16:01:56.850Z,100114.06
2023-04-09T16:03:28.998Z,100112.31
2023-04-09T16:05:01.087Z,100108.88
2023-04-09T16:06:33.390Z,100102.88
2023-04-09T16:08:05.553Z,100112.38
2023-04-09T16:09:37.662Z,100111.47
2023-04-09T16:11:10.007Z,100102.03
2023-04-09T16:12:42.306Z,100109.78
2023-04-09T16:14:14.396Z,100111.53
2023-04-09T16:15:47.339Z,100114.13
2023-04-09T16:17:19.485Z,100112.44
2023-04-09T16:18:51.901Z,100114.13
2023-04-09T16:20:24.180Z,100109.84
2023-04-09T16:21:56.318Z,100119.31
2023-04-09T16:23:30.489Z,100115.81
2023-04-09T16:25:03.129Z,100114.19
2023-04-09T16:26:35.294Z,100115.88
2023-04-09T16:28:07.426Z,100116.72
2023-04-09T16:29:39.557Z,100108.13
2023-04-09T16:31:11.731Z,100109.00
2023-04-09T16:32:43.901Z,100110.72
2023-04-09T16:34:16.144Z,100111.59
2023-04-09T16:35:48.353Z,100113.38
2023-04-09T16:37:20.766Z,100108.19
2023-04-09T16:38:53.361Z,100113.34
2023-04-09T16:40:25.659Z,100111.66
2023-04-09T16:41:58.700Z,100110.78
2023-04-09T16:43:31.077Z,100111.69
2023-04-09T16:45:04.930Z,100107.34
2023-04-09T16:46:37.051Z,100111.69
2023-04-09T16:48:12.789Z,100109.09
2023-04-09T16:49:45.029Z,100110.84
2023-04-09T16:52:50.201Z,100112.63
2023-04-09T16:54:22.333Z,100112.69
2023-04-09T16:55:54.556Z,100116.13
2023-04-09T16:57:26.840Z,100111.00
2023-04-09T16:58:59.143Z,100114.44
2023-04-09T17:00:31.302Z,100122.19
2023-04-09T17:02:03.575Z,100126.53
2023-04-09T17:03:36.056Z,100123.09
2023-04-09T17:05:09.295Z,100125.69
2023-04-09T17:06:41.589Z,100124.00
2023-04-09T17:08:13.664Z,100124.88
2023-04-09T17:09:45.893Z,100128.34
2023-04-09T17:11:18.278Z,100131.84
2023-04-09T17:12:51.238Z,100129.25
2023-04-09T17:14:23.307Z,100137.03
2023-04-09T17:15:55.407Z,100134.44
2023-04-09T17:17:27.615Z,100131.84
2023-04-09T17:18:59.754Z,100136.13
2023-04-09T17:20:32.145Z,100139.56
2023-04-09T17:22:05.100Z,100142.13
2023-04-09T17:23:38.256Z,100142.13
2023-04-09T17:25:11.022Z,100137.78
2023-04-09T17:26:43.219Z,100141.22
2023-04-09T17:28:16.330Z,100143.81
2023-04-09T17:29:50.452Z,100142.97
2023-04-09T17:31:24.556Z,100142.97
2023-04-09T17:32:56.898Z,100144.78
2023-04-09T17:34:29.453Z,100141.34
2023-04-09T17:36:02.023Z,100146.53
2023-04-09T17:37:35.094Z,100147.38
2023-04-09T17:39:07.235Z,100149.97
2023-04-09T17:40:39.376Z,100151.75
2023-04-09T17:42:14.617Z,100152.63
2023-04-09T17:43:46.731Z,100159.53
2023-04-09T17:45:18.882Z,100153.50
2023-04-09T17:46:51.223Z,100159.53
2023-04-09T17:48:23.733Z,100158.69
2023-04-09T17:49:58.904Z,100158.69
2023-04-09T17:51:31.023Z,100163.03
2023-04-09T17:53:03.373Z,100157.88
2023-04-09T17:54:36.164Z,100168.22
2023-04-09T17:56:09.408Z,100176.84
2023-04-09T17:57:42.136Z,100179.44
2023-04-09T17:59:14.232Z,100172.59
2023-04-09T18:00:46.808Z,100173.44
2023-04-09T18:02:19.107Z,100179.47
2023-04-09T18:03:51.500Z,100180.34
2023-04-09T18:05:24.222Z,100183.78
2023-04-09T18:06:57.030Z,100185.53
2023-04-09T18:08:29.146Z,100181.22
2023-04-09T18:10:02.568Z,100189.81
2023-04-09T18:11:34.465Z,100184.63
2023-04-09T18:13:06.821Z,100189.84
2023-04-09T18:14:38.975Z,100191.59
2023-04-09T18:16:12.710Z,100190.72
2023-04-09T18:17:45.479Z,100190.75
2023-04-09T18:19:17.598Z,100190.78
2023-04-09T18:20:52.576Z,100196.88
2023-04-09T18:22:25.716Z,100191.66
2023-04-09T18:23:58.504Z,100190.81
2023-04-09T18:25:30.702Z,100194.25
2023-04-09T18:27:03.244Z,100199.38
2023-04-09T18:28:36.021Z,100200.22
2023-04-09T18:30:08.523Z,100208.81
2023-04-09T18:31:40.716Z,100202.78
2023-04-09T18:33:12.945Z,100205.38
2023-04-09T18:34:46.115Z,100203.66
2023-04-09T18:36:19.676Z,100205.38
2023-04-09T18:37:51.755Z,100208.81
2023-04-09T18:39:23.861Z,100208.88
2023-04-09T18:40:57.173Z,100213.16
2023-04-09T18:42:29.331Z,100213.19
2023-04-09T18:44:01.467Z,100210.59
2023-04-09T18:45:33.492Z,100217.47
2023-04-09T18:47:06.807Z,100210.56
2023-04-09T18:48:39.044Z,100216.63
2023-04-09T18:50:12.693Z,100214.03
2023-04-09T18:51:44.820Z,100208.03
2023-04-09T18:53:16.944Z,100210.59
2023-04-09T18:54:49.651Z,100208.88
2023-04-09T18:56:21.820Z,100213.19
2023-04-09T18:57:54.624Z,100213.19
2023-04-09T18:59:26.802Z,100208.91
2023-04-09T19:00:59.011Z,100215.78
2023-04-09T19:02:31.398Z,100208.91
2023-04-09T19:04:03.709Z,100213.31
2023-04-09T19:05:36.653Z,100211.56
2023-04-09T19:07:08.858Z,100215.84
2023-04-09T19:08:41.516Z,100214.94
2023-04-09T19:10:13.837Z,100210.63
2023-04-09T19:11:46.329Z,100209.78
2023-04-09T19:13:18.690Z,100215.81
2023-04-09T19:14:50.759Z,100210.63
2023-04-09T19:16:23.192Z,100207.19
2023-04-09T19:17:56.974Z,100208.91
2023-04-09T19:19:29.550Z,100213.25
2023-04-09T19:21:01.928Z,100214.94
2023-04-09T19:22:34.035Z,100203.75
2023-04-09T19:24:06.364Z,100202.94
2023-04-09T19:25:38.509Z,100205.53
2023-04-09T19:27:12.096Z,100205.53
2023-04-09T19:28:44.207Z,100201.22
2023-04-09T19:30:16.568Z,100198.63
2023-04-09T19:31:48.695Z,100200.31
2023-04-09T19:33:22.554Z,100202.91
2023-04-09T19:34:54.675Z,100198.56
2023-04-09T19:36:27.262Z,100199.44
2023-04-09T19:37:59.531Z,100194.28
2023-04-09T19:39:31.952Z,100200.31
2023-04-09T19:41:04.231Z,100200.31
2023-04-09T19:42:36.614Z,100202.91
2023-04-09T19:44:09.526Z,100199.47
2023-04-09T19:45:43.045Z,100202.91
2023-04-09T19:47:15.061Z,100205.44
2023-04-09T19:48:47.889Z,100196.81
2023-04-09T19:50:20.029Z,100206.34
2023-04-09T19:51:52.593Z,100198.56
2023-04-09T19:53:25.975Z,100197.72
2023-04-09T19:54:58.566Z,100195.19
2023-04-09T19:56:30.786Z,100192.56
2023-04-09T19:58:03.578Z,100193.44
2023-04-09T19:59:37.885Z,100197.78
2023-04-09T20:01:13.010Z,100197.78
2023-04-09T20:02:45.409Z,100204.66
2023-04-09T20:04:17.996Z,100200.38
2023-04-09T20:05:50.169Z,100193.47
2023-04-09T20:07:22.633Z,100204.66
2023-04-09T20:08:55.206Z,100202.09
2023-04-09T20:10:27.539Z,100199.53
2023-04-09T20:12:04.675Z,100206.44
2023-04-09T20:13:36.819Z,100197.00
2023-04-09T20:15:09.899Z,100201.31
2023-04-09T20:16:42.253Z,100198.75
2023-04-09T20:18:14.427Z,100203.91
2023-04-09T20:19:46.978Z,100201.38